Time;durP1;ratioP1;P1;durP2;ratioP2;P2;SDS_P1;SDS_P2;PMS_P1;PMS_P2;Temp;Humidity;BMP_temperature;BMP_pressure;BME280_temperature;BME280_humidity;BME280_pressure;Samples;Min_cycle;Max_cycle;Signal;HPM_P1;HPM_P2
2023/07/30 00:01:17;;;;;;;0.65;0.65;;;;;;;20.56;64.11;100411.16;5152901;28;20060;-82
2023/07/30 00:04:08;;;;;;;0.50;0.50;;;;;;;20.59;64.22;100405.63;5176219;28;20037;-84
2023/07/30 00:06:59;;;;;;;0.28;0.28;;;;;;;20.54;63.81;100421.09;5163452;28;20034;-84
2023/07/30 00:09:50;;;;;;;3.10;0.38;;;;;;;20.61;63.55;100417.03;5175612;28;20034;-84
2023/07/30 00:12:41;;;;;;;0.30;0.30;;;;;;;20.53;63.67;100409.59;5160035;28;20133;-84
2023/07/30 00:15:32;;;;;;;0.65;0.65;;;;;;;20.48;63.91;100408.22;5171069;28;20545;-84
2023/07/30 00:18:23;;;;;;;0.60;0.60;;;;;;;20.50;63.83;100416.97;5160336;28;20547;-84
2023/07/30 00:21:13;;;;;;;2.33;1.10;;;;;;;20.55;63.02;100414.78;5167046;28;20116;-85
2023/07/30 00:24:04;;;;;;;0.63;0.60;;;;;;;20.48;63.41;100408.22;5168705;28;20060;-84
2023/07/30 00:26:55;;;;;;;0.75;0.75;;;;;;;20.49;63.00;100413.44;5164325;28;20469;-84
2023/07/30 00:29:46;;;;;;;0.28;0.28;;;;;;;20.49;62.89;100413.44;5159228;28;20080;-85
2023/07/30 00:32:40;;;;;;;0.40;0.40;;;;;;;20.41;63.09;100408.69;5187495;28;20040;-83
2023/07/30 00:35:30;;;;;;;1.08;0.90;;;;;;;20.40;62.58;100414.13;5168055;28;20040;-84
2023/07/30 00:38:21;;;;;;;1.00;0.95;;;;;;;20.32;63.00;100414.69;5171973;28;20387;-85
2023/07/30 00:41:12;;;;;;;0.20;0.20;;;;;;;20.35;62.57;100429.59;5170999;28;20042;-85
2023/07/30 00:44:04;;;;;;;0.50;0.50;;;;;;;20.33;62.63;100416.38;5167641;28;20104;-84
2023/07/30 00:46:55;;;;;;;0.40;0.40;;;;;;;20.28;62.72;100416.72;5173668;28;20026;-84
2023/07/30 00:49:45;;;;;;;0.20;0.20;;;;;;;20.30;62.49;100411.25;5161161;28;20030;-84
2023/07/30 00:52:37;;;;;;;16.40;1.95;;;;;;;20.27;62.34;100411.50;5171671;28;20040;-85
2023/07/30 00:55:27;;;;;;;0.63;0.63;;;;;;;20.23;62.05;100418.88;5171898;28;20027;-83
2023/07/30 00:58:20;;;;;;;0.40;0.40;;;;;;;20.20;62.74;100421.75;5171737;28;20026;-85
2023/07/30 01:01:11;;;;;;;1.13;0.93;;;;;;;20.16;62.61;100430.06;5174175;28;20139;-85
2023/07/30 01:04:02;;;;;;;0.85;0.85;;;;;;;20.15;63.03;100425.69;5175978;28;20038;-85
2023/07/30 01:06:53;;;;;;;0.38;0.38;;;;;;;20.11;62.67;100439.25;5170267;28;20110;-84
2023/07/30 01:09:44;;;;;;;0.28;0.28;;;;;;;20.06;63.10;100438.72;5158508;28;20034;-85
2023/07/30 01:12:36;;;;;;;0.30;0.30;;;;;;;20.01;62.87;100442.66;5159671;28;20041;-85
2023/07/30 01:15:28;;;;;;;1.77;1.67;;;;;;;19.96;63.20;100441.19;5171376;28;20064;-84
2023/07/30 01:18:19;;;;;;;1.13;0.98;;;;;;;19.95;62.84;100438.66;5172354;28;20030;-85
2023/07/30 01:21:10;;;;;;;0.30;0.30;;;;;;;19.89;63.32;100436.41;5184174;28;20100;-84
2023/07/30 01:24:01;;;;;;;0.30;0.30;;;;;;;19.81;63.52;100431.59;5159957;28;20049;-84
2023/07/30 01:26:58;;;;;;;0.30;0.30;;;;;;;19.80;63.45;100446.72;5193789;28;20018;-83
2023/07/30 01:29:57;;;;;;;0.57;0.57;;;;;;;19.78;64.34;100443.34;5197887;28;20045;-83
2023/07/30 01:32:52;;;;;;;0.30;0.30;;;;;;;19.68;64.40;100447.59;5183020;28;20092;-84
2023/07/30 01:35:44;;;;;;;0.20;0.20;;;;;;;19.58;65.14;100446.53;5189172;28;20500;-84
2023/07/30 01:38:35;;;;;;;0.30;0.30;;;;;;;19.54;65.31;100437.91;5172252;28;20021;-84
2023/07/30 01:41:25;;;;;;;0.20;0.20;;;;;;;19.72;64.49;100443.75;5187286;28;20113;-84
2023/07/30 01:44:16;;;;;;;0.47;0.47;;;;;;;19.54;65.49;100445.88;5164091;28;20050;-83
2023/07/30 01:47:07;;;;;;;0.40;0.40;;;;;;;19.59;65.36;100443.75;5184704;28;20089;-85
2023/07/30 01:49:58;;;;;;;0.45;0.45;;;;;;;19.43;65.81;100448.41;5151946;28;20089;-84
2023/07/30 01:52:49;;;;;;;0.20;0.20;;;;;;;19.46;65.58;100448.22;5166918;28;20418;-83
2023/07/30 01:55:43;;;;;;;0.52;0.52;;;;;;;19.61;64.92;100443.66;5154187;28;20314;-84
2023/07/30 01:58:34;;;;;;;0.20;0.20;;;;;;;19.44;65.71;100451.00;5168375;28;20053;-84
2023/07/30 02:01:24;;;;;;;0.30;0.30;;;;;;;19.43;65.63;100454.63;5168538;28;20526;-84
2023/07/30 02:04:17;;;;;;;0.45;0.45;;;;;;;19.35;66.24;100451.63;5171947;28;20104;-85
2023/07/30 02:07:08;;;;;;;0.65;0.65;;;;;;;18.96;67.62;100454.22;5168422;28;20026;-84
2023/07/30 02:09:58;;;;;;;0.20;0.20;;;;;;;18.94;67.95;100448.13;5158641;28;20042;-84
2023/07/30 02:12:49;;;;;;;0.50;0.50;;;;;;;19.07;67.10;100442.84;5181967;28;20563;-84
2023/07/30 02:15:42;;;;;;;0.30;0.30;;;;;;;19.24;66.31;100447.03;5166462;28;20460;-85
2023/07/30 02:18:32;;;;;;;1.60;0.77;;;;;;;19.40;65.75;100454.81;5162846;28;20031;-85
2023/07/30 02:21:23;;;;;;;0.75;0.75;;;;;;;19.53;65.48;100443.34;5156630;28;20053;-85
2023/07/30 02:24:14;;;;;;;0.43;0.43;;;;;;;19.50;65.39;100450.56;5169230;28;20053;-84
2023/07/30 02:27:05;;;;;;;1.27;0.40;;;;;;;19.17;67.07;100441.28;5152317;28;20042;-85
2023/07/30 02:29:56;;;;;;;0.30;0.30;;;;;;;19.24;66.68;100443.50;5162902;28;20157;-85
2023/07/30 02:32:46;;;;;;;0.40;0.40;;;;;;;19.11;67.01;100449.69;5153235;28;20097;-86
2023/07/30 02:35:37;;;;;;;0.52;0.50;;;;;;;19.10;66.79;100447.97;5181196;28;20591;-85
2023/07/30 02:38:28;;;;;;;1.45;0.93;;;;;;;19.04;66.72;100453.72;5165093;28;20119;-84
2023/07/30 02:41:19;;;;;;;0.75;0.60;;;;;;;19.05;67.00;100460.69;5166863;28;20208;-84
2023/07/30 02:44:10;;;;;;;0.20;0.20;;;;;;;19.06;66.31;100456.25;5168617;28;20081;-84
2023/07/30 02:47:00;;;;;;;1.65;0.88;;;;;;;19.02;66.47;100467.09;5164589;28;20030;-84
2023/07/30 02:49:51;;;;;;;0.43;0.43;;;;;;;18.89;66.54;100460.88;5168944;28;20045;-84
2023/07/30 02:52:42;;;;;;;0.93;0.60;;;;;;;19.02;66.31;100460.94;5166620;28;20040;-84
2023/07/30 02:55:33;;;;;;;1.65;0.82;;;;;;;18.95;66.49;100459.63;5165530;28;20097;-85
2023/07/30 02:58:23;;;;;;;0.60;0.60;;;;;;;18.64;67.10;100466.91;5167809;28;20034;-84
2023/07/30 03:01:14;;;;;;;0.52;0.52;;;;;;;18.86;66.31;100467.25;5165828;28;20037;-85
2023/07/30 03:04:05;;;;;;;5.95;0.73;;;;;;;18.94;66.34;100463.25;5163768;28;20099;-84
2023/07/30 03:06:56;;;;;;;0.30;0.30;;;;;;;18.86;66.38;100467.25;5164290;28;20026;-84
2023/07/30 03:09:47;;;;;;;1.83;1.38;;;;;;;18.61;66.92;100477.75;5154318;28;20121;-85
2023/07/30 03:12:37;;;;;;;0.30;0.30;;;;;;;18.61;66.97;100467.13;5172778;28;20041;-83
2023/07/30 03:15:28;;;;;;;0.32;0.32;;;;;;;18.36;67.28;100469.56;5158706;28;20070;-84
2023/07/30 03:18:19;;;;;;;0.38;0.38;;;;;;;18.19;67.27;100478.59;5173012;28;20037;-84
2023/07/30 03:21:10;;;;;;;0.30;0.30;;;;;;;18.56;66.03;100481.56;5152404;28;20045;-84
2023/07/30 03:24:00;;;;;;;0.35;0.35;;;;;;;18.22;66.25;100481.06;5165466;28;20036;-84
2023/07/30 03:26:51;;;;;;;1.02;0.85;;;;;;;18.12;66.81;100492.34;5152628;28;20067;-85
2023/07/30 03:29:42;;;;;;;0.50;0.50;;;;;;;18.13;67.03;100481.66;5153445;28;20150;-83
2023/07/30 03:32:33;;;;;;;0.25;0.25;;;;;;;18.05;67.43;100482.13;5166156;28;20034;-84
2023/07/30 03:35:24;;;;;;;0.75;0.75;;;;;;;18.18;67.38;100479.56;5167137;28;20576;-84
2023/07/30 03:38:14;;;;;;;0.38;0.38;;;;;;;18.33;67.02;100490.16;5153080;28;20476;-84
2023/07/30 03:41:06;;;;;;;0.85;0.85;;;;;;;18.23;67.34;100485.41;5158532;28;20038;-85
2023/07/30 03:43:57;;;;;;;2.53;1.30;;;;;;;18.05;67.17;100494.56;5164403;28;20457;-84
2023/07/30 03:46:48;;;;;;;0.55;0.55;;;;;;;17.90;69.02;100488.34;5155395;28;20022;-84
2023/07/30 03:49:39;;;;;;;0.30;0.30;;;;;;;17.88;69.37;100493.75;5169315;28;20116;-84
2023/07/30 03:52:29;;;;;;;0.40;0.40;;;;;;;17.71;69.83;100488.63;5173109;28;20030;-84
2023/07/30 03:55:20;;;;;;;0.30;0.30;;;;;;;17.89;69.23;100492.78;5156024;28;20034;-84
2023/07/30 03:58:11;;;;;;;0.40;0.40;;;;;;;17.87;69.31;100483.22;5183049;28;20022;-84
2023/07/30 04:01:02;;;;;;;0.20;0.20;;;;;;;17.84;69.40;100496.69;5169977;28;20493;-83
2023/07/30 04:03:53;;;;;;;1.40;0.73;;;;;;;17.59;70.13;100500.84;5156139;28;20084;-82
2023/07/30 04:06:43;;;;;;;1.27;1.05;;;;;;;17.52;69.96;100500.34;5156605;28;20061;-84
2023/07/30 04:09:34;;;;;;;0.30;0.30;;;;;;;17.52;69.54;100505.66;5164834;28;20060;-83
2023/07/30 04:12:25;;;;;;;0.20;0.20;;;;;;;17.48;69.25;100508.56;5185990;28;20112;-83
2023/07/30 04:15:16;;;;;;;0.30;0.30;;;;;;;17.80;68.37;100506.66;5184682;28;20038;-83
2023/07/30 04:18:07;;;;;;;6.03;1.75;;;;;;;17.92;67.60;100503.22;5181281;28;20097;-84
2023/07/30 04:20:57;;;;;;;0.20;0.20;;;;;;;17.80;68.03;100511.97;5187422;28;20034;-84
2023/07/30 04:23:48;;;;;;;1.05;1.05;;;;;;;17.56;68.03;100501.84;5164176;28;20038;-84
2023/07/30 04:26:39;;;;;;;14.52;1.60;;;;;;;17.56;67.99;100509.81;5168170;28;20030;-84
2023/07/30 04:29:30;;;;;;;0.30;0.30;;;;;;;17.50;67.72;100512.84;5179548;28;20039;-83
2023/07/30 04:32:21;;;;;;;0.63;0.63;;;;;;;17.44;67.31;100511.41;5160154;28;20030;-83
2023/07/30 04:35:11;;;;;;;0.30;0.30;;;;;;;17.52;67.80;100516.25;5167745;28;20544;-84
2023/07/30 04:38:02;;;;;;;0.20;0.20;;;;;;;17.61;67.15;100518.38;5174298;28;20081;-84
2023/07/30 04:40:53;;;;;;;0.50;0.50;;;;;;;17.46;67.75;100528.09;5168568;28;20228;-84
2023/07/30 04:43:44;;;;;;;0.80;0.80;;;;;;;17.40;68.41;100531.09;5168256;28;20029;-84
2023/07/30 04:46:34;;;;;;;1.65;0.45;;;;;;;17.49;68.71;100527.03;5171341;28;20049;-84
2023/07/30 04:49:25;;;;;;;0.30;0.30;;;;;;;17.36;70.06;100529.56;5157106;28;20030;-84
2023/07/30 04:52:16;;;;;;;0.20;0.20;;;;;;;17.20;70.86;100526.09;5171806;28;20041;-84
2023/07/30 04:55:07;;;;;;;0.30;0.30;;;;;;;17.20;71.33;100532.28;5181620;28;20046;-84
2023/07/30 04:57:58;;;;;;;0.80;0.57;;;;;;;17.15;71.72;100529.88;5175687;28;20026;-83
2023/07/30 05:00:49;;;;;;;0.20;0.20;;;;;;;17.03;72.35;100524.44;5182679;28;20038;-83
2023/07/30 05:03:39;;;;;;;0.43;0.43;;;;;;;17.13;72.13;100520.31;5185810;28;20037;-83
2023/07/30 05:06:30;;;;;;;0.73;0.73;;;;;;;16.91;72.88;100525.97;5182597;28;20030;-84
2023/07/30 05:09:21;;;;;;;0.57;0.57;;;;;;;16.92;73.25;100525.88;5180981;28;20042;-84
2023/07/30 05:12:12;;;;;;;0.28;0.28;;;;;;;16.66;74.02;100525.53;5170635;28;20046;-83
2023/07/30 05:15:03;;;;;;;0.20;0.20;;;;;;;16.59;74.62;100521.53;5175275;28;20109;-84
2023/07/30 05:17:54;;;;;;;1.65;1.33;;;;;;;16.68;73.98;100531.59;5176540;28;20158;-84
2023/07/30 05:20:48;;;;;;;0.50;0.50;;;;;;;16.74;73.58;100524.25;5153552;28;20057;-84
2023/07/30 05:23:39;;;;;;;0.22;0.22;;;;;;;16.74;73.72;100521.59;5169073;28;20030;-84
2023/07/30 05:26:29;;;;;;;0.60;0.60;;;;;;;16.72;74.02;100511.09;5156683;28;20018;-84
2023/07/30 05:29:20;;;;;;;0.20;0.20;;;;;;;16.46;74.48;100520.50;5152882;28;20046;-84
2023/07/30 05:32:12;;;;;;;0.20;0.20;;;;;;;16.49;75.05;100530.91;5165983;28;20046;-84
2023/07/30 05:35:03;;;;;;;0.20;0.20;;;;;;;16.64;74.33;100521.25;5168869;28;20477;-84
2023/07/30 05:37:54;;;;;;;0.25;0.25;;;;;;;16.57;74.72;100523.38;5161510;28;20172;-83
2023/07/30 05:40:45;;;;;;;0.68;0.68;;;;;;;16.46;74.93;100525.78;5163942;28;20606;-83
2023/07/30 05:43:35;;;;;;;0.40;0.40;;;;;;;16.66;74.94;100522.03;5174037;28;20065;-83
2023/07/30 05:46:26;;;;;;;0.20;0.20;;;;;;;16.73;73.75;100526.06;5157447;28;20129;-82
2023/07/30 05:49:17;;;;;;;0.20;0.20;;;;;;;16.56;74.50;100524.34;5167338;28;20177;-81
2023/07/30 05:52:08;;;;;;;0.20;0.20;;;;;;;16.60;74.53;100522.38;5179533;28;20036;-82
2023/07/30 05:54:59;;;;;;;0.30;0.30;;;;;;;16.76;73.78;100525.03;5175306;28;20026;-82
2023/07/30 05:57:50;;;;;;;4.82;1.23;;;;;;;16.72;74.65;100524.34;5167628;28;20045;-82
2023/07/30 06:00:41;;;;;;;0.40;0.40;;;;;;;16.67;74.65;100523.75;5162464;28;20303;-82
2023/07/30 06:03:32;;;;;;;0.20;0.20;;;;;;;16.70;75.33;100530.66;5172553;28;20080;-82
2023/07/30 06:06:27;;;;;;;0.35;0.35;;;;;;;16.88;74.66;100536.72;5166946;28;20038;-82
2023/07/30 06:09:17;;;;;;;0.20;0.20;;;;;;;16.69;75.47;100543.06;5186521;28;20335;-82
2023/07/30 06:12:08;;;;;;;0.57;0.57;;;;;;;16.80;75.11;100545.13;5167147;28;20054;-81
2023/07/30 06:14:59;;;;;;;0.20;0.20;;;;;;;16.81;74.64;100545.03;5172967;28;20056;-81
2023/07/30 06:17:50;;;;;;;0.25;0.25;;;;;;;16.98;74.08;100538.78;5176183;28;20028;-81
2023/07/30 06:20:41;;;;;;;0.32;0.32;;;;;;;16.84;75.12;100549.28;5158572;28;20046;-81
2023/07/30 06:23:31;;;;;;;0.50;0.50;;;;;;;16.90;75.47;100548.94;5183017;28;20030;-82
2023/07/30 06:26:22;;;;;;;0.47;0.25;;;;;;;16.81;75.34;100552.13;5183817;28;20034;-82
2023/07/30 06:29:13;;;;;;;0.30;0.30;;;;;;;16.91;75.20;100550.66;5186708;28;20045;-82
2023/07/30 06:32:04;;;;;;;0.82;0.60;;;;;;;16.96;75.28;100548.66;5187548;28;20093;-81
2023/07/30 06:34:55;;;;;;;1.92;0.90;;;;;;;17.10;75.32;100555.81;5187861;28;20014;-81
2023/07/30 06:37:46;;;;;;;0.38;0.38;;;;;;;17.11;74.66;100559.31;5185034;28;20041;-81
2023/07/30 06:40:37;;;;;;;0.90;0.68;;;;;;;17.18;74.04;100554.53;5189377;28;20052;-82
2023/07/30 06:43:27;;;;;;;0.20;0.20;;;;;;;17.06;74.26;100556.06;5194604;28;20041;-82
2023/07/30 06:46:18;;;;;;;1.10;1.00;;;;;;;17.13;74.61;100558.28;5166336;28;20049;-82
2023/07/30 06:49:09;;;;;;;0.30;0.30;;;;;;;17.13;74.35;100546.81;5182805;28;20076;-82
2023/07/30 06:52:00;;;;;;;0.20;0.20;;;;;;;17.26;73.88;100558.41;5161265;28;20279;-82
2023/07/30 06:54:50;;;;;;;2.55;1.85;;;;;;;17.25;73.77;100555.88;5166397;28;20052;-82
2023/07/30 06:57:41;;;;;;;0.30;0.30;;;;;;;17.21;74.29;100560.50;5183275;28;20033;-83
2023/07/30 07:00:32;;;;;;;0.68;0.68;;;;;;;17.36;73.63;100568.50;5178124;28;20049;-82
2023/07/30 07:03:23;;;;;;;0.22;0.22;;;;;;;17.35;73.77;100567.66;5169087;28;20706;-83
2023/07/30 07:06:14;;;;;;;0.30;0.30;;;;;;;17.31;74.07;100569.59;5184305;28;20046;-82
2023/07/30 07:09:04;;;;;;;0.40;0.40;;;;;;;17.19;73.89;100565.03;5175786;28;20030;-82
2023/07/30 07:11:55;;;;;;;0.20;0.20;;;;;;;17.45;73.73;100567.97;5195687;28;20307;-82
2023/07/30 07:14:46;;;;;;;0.30;0.30;;;;;;;17.59;73.36;100568.00;5189180;28;20072;-83
2023/07/30 07:17:37;;;;;;;0.52;0.52;;;;;;;17.65;72.49;100579.19;5176769;28;20033;-83
2023/07/30 07:20:27;;;;;;;1.00;0.40;;;;;;;17.70;73.00;100580.63;5187594;28;20060;-82
2023/07/30 07:23:18;;;;;;;0.20;0.20;;;;;;;17.65;72.66;100595.97;5169516;28;20033;-82
2023/07/30 07:26:09;;;;;;;0.20;0.20;;;;;;;17.59;72.79;100585.72;5169304;28;20057;-82
2023/07/30 07:29:00;;;;;;;0.20;0.20;;;;;;;17.59;72.74;100588.38;5183521;28;20054;-83
2023/07/30 07:31:51;;;;;;;0.20;0.20;;;;;;;17.69;73.15;100588.69;5168192;28;20129;-82
2023/07/30 07:34:45;;;;;;;1.10;0.75;;;;;;;17.64;73.39;100588.13;5167916;28;20042;-83
2023/07/30 07:37:36;;;;;;;0.20;0.20;;;;;;;17.55;73.22;100590.38;5176677;28;20079;-82
2023/07/30 07:40:27;;;;;;;0.40;0.40;;;;;;;17.56;73.50;100596.50;5165689;28;20038;-82
2023/07/30 07:43:18;;;;;;;0.30;0.30;;;;;;;17.76;73.08;100592.69;5172268;28;20038;-83
2023/07/30 07:46:13;;;;;;;1.20;1.20;;;;;;;17.72;74.06;100601.78;5177092;28;20112;-83
2023/07/30 07:49:03;;;;;;;0.20;0.20;;;;;;;17.69;73.15;100601.94;5176200;28;20057;-83
2023/07/30 07:51:54;;;;;;;0.25;0.25;;;;;;;17.78;73.28;100606.72;5167869;28;20026;-82
2023/07/30 07:54:45;;;;;;;0.80;0.80;;;;;;;17.86;73.59;100604.47;5153673;28;20041;-83
2023/07/30 07:57:36;;;;;;;1.00;0.47;;;;;;;17.85;73.60;100597.44;5163878;28;20048;-83
2023/07/30 08:00:27;;;;;;;0.60;0.60;;;;;;;17.97;73.28;100600.34;5171537;28;20030;-82
2023/07/30 08:03:17;;;;;;;0.63;0.63;;;;;;;17.84;73.42;100614.31;5165719;28;20498;-82
2023/07/30 08:06:08;;;;;;;1.17;1.08;;;;;;;17.73;74.27;100611.41;5170376;28;20076;-82
2023/07/30 08:08:59;;;;;;;1.02;0.93;;;;;;;17.84;73.96;100616.97;5157891;28;20041;-82
2023/07/30 08:11:50;;;;;;;0.20;0.20;;;;;;;17.74;73.88;100611.34;5186489;28;20034;-82
2023/07/30 08:14:40;;;;;;;0.60;0.57;;;;;;;17.83;73.62;100609.09;5191498;28;20381;-82
2023/07/30 08:17:31;;;;;;;0.65;0.65;;;;;;;17.96;73.35;100603.94;5172434;28;20026;-82
2023/07/30 08:20:22;;;;;;;0.60;0.60;;;;;;;18.03;73.31;100610.59;5185036;28;20449;-82
2023/07/30 08:23:13;;;;;;;3.60;2.60;;;;;;;17.86;73.33;100606.25;5177537;28;20042;-82
2023/07/30 08:26:04;;;;;;;1.20;1.10;;;;;;;17.88;73.38;100607.00;5181313;28;20405;-82
2023/07/30 08:28:54;;;;;;;0.30;0.30;;;;;;;18.01;72.71;100593.91;5154223;28;20420;-81
2023/07/30 08:31:45;;;;;;;1.45;0.73;;;;;;;17.97;72.58;100610.97;5166081;28;20034;-83
2023/07/30 08:34:36;;;;;;;0.32;0.32;;;;;;;18.15;72.38;100609.00;5171108;28;20092;-82
2023/07/30 08:37:27;;;;;;;0.30;0.30;;;;;;;18.09;72.60;100608.44;5170052;28;20038;-82
2023/07/30 08:40:20;;;;;;;2.47;2.20;;;;;;;18.33;71.49;100617.63;5171148;28;20034;-82
2023/07/30 08:43:11;;;;;;;0.60;0.60;;;;;;;18.32;70.95;100621.22;5176269;28;20226;-82
2023/07/30 08:46:02;;;;;;;0.20;0.20;;;;;;;18.45;70.75;100621.34;5174864;28;20053;-82
2023/07/30 08:48:53;;;;;;;0.30;0.30;;;;;;;18.46;70.58;100620.38;5170682;28;20056;-82
2023/07/30 08:51:48;;;;;;;0.28;0.28;;;;;;;18.48;69.78;100614.03;5174415;28;20069;-82
2023/07/30 08:54:40;;;;;;;0.22;0.22;;;;;;;18.62;69.32;100622.97;5173749;28;20034;-82
2023/07/30 08:57:32;;;;;;;0.30;0.30;;;;;;;18.38;69.92;100632.34;5170516;28;20145;-82
2023/07/30 09:00:25;;;;;;;2.58;0.77;;;;;;;18.52;69.47;100628.84;5172507;28;20040;-82
2023/07/30 09:03:18;;;;;;;0.20;0.20;;;;;;;18.62;69.39;100631.75;5153282;28;20030;-82
2023/07/30 09:06:08;;;;;;;0.35;0.35;;;;;;;18.54;69.47;100632.25;5154195;28;20050;-83
2023/07/30 09:08:59;;;;;;;1.30;0.40;;;;;;;18.39;70.16;100626.09;5161480;28;20430;-82
2023/07/30 09:11:56;;;;;;;0.20;0.20;;;;;;;18.45;69.80;100627.50;5184521;28;20045;-82
2023/07/30 09:14:50;;;;;;;0.40;0.40;;;;;;;18.63;69.37;100628.16;5169887;28;20042;-82
2023/07/30 09:17:41;;;;;;;0.40;0.40;;;;;;;18.58;69.11;100627.59;5166907;28;20518;-82
2023/07/30 09:20:39;;;;;;;0.20;0.20;;;;;;;18.65;69.48;100638.69;5158570;28;20034;-82
2023/07/30 09:23:30;;;;;;;0.43;0.43;;;;;;;18.84;68.20;100644.56;5152923;28;20129;-82
2023/07/30 09:26:21;;;;;;;1.30;1.23;;;;;;;18.72;67.55;100640.00;5157143;28;20070;-82
2023/07/30 09:29:12;;;;;;;0.28;0.28;;;;;;;18.64;67.80;100642.28;5168260;28;20050;-83
2023/07/30 09:32:07;;;;;;;1.95;1.42;;;;;;;18.77;67.56;100643.25;5156684;28;20094;-83
2023/07/30 09:35:08;;;;;;;0.40;0.40;;;;;;;18.87;67.64;100644.38;5154411;28;20386;-83
2023/07/30 09:38:02;;;;;;;0.30;0.30;;;;;;;18.78;66.74;100639.66;5166026;28;20390;-83
2023/07/30 09:40:53;;;;;;;;;;;;;;;18.65;67.24;100644.00;5169190;28;20042;-83
2023/07/30 09:43:44;;;;;;;0.73;0.73;;;;;;;18.84;67.17;100639.25;5169177;28;19917;-83
2023/07/30 09:46:43;;;;;;;0.60;0.57;;;;;;;18.90;66.72;100637.16;5166317;28;20537;-83
2023/07/30 09:49:34;;;;;;;0.40;0.40;;;;;;;18.81;66.03;100644.75;5156914;28;20096;-83
2023/07/30 09:52:25;;;;;;;0.22;0.22;;;;;;;18.74;66.25;100648.75;5173622;28;20022;-83
2023/07/30 09:55:16;;;;;;;1.17;1.05;;;;;;;18.92;65.60;100635.25;5168881;28;20596;-83
2023/07/30 09:58:10;;;;;;;0.73;0.73;;;;;;;19.06;65.81;100635.25;5173675;28;20045;-83
2023/07/30 10:01:04;;;;;;;0.70;0.70;;;;;;;19.18;65.71;100637.13;5162356;28;20038;-82
2023/07/30 10:03:57;;;;;;;11.95;1.20;;;;;;;19.27;65.98;100629.50;5168015;28;20050;-82
2023/07/30 10:06:53;;;;;;;0.40;0.35;;;;;;;19.35;66.14;100628.03;5163642;28;20385;-83
2023/07/30 10:09:48;;;;;;;0.22;0.22;;;;;;;19.25;64.87;100626.94;5168040;28;20053;-83
2023/07/30 10:12:41;;;;;;;0.30;0.30;;;;;;;19.42;64.49;100625.84;5156710;28;20061;-83
2023/07/30 10:15:37;;;;;;;0.20;0.20;;;;;;;19.43;63.31;100635.53;5164550;28;20486;-83
2023/07/30 10:18:42;;;;;;;0.20;0.20;;;;;;;19.57;62.80;100631.09;5165387;28;20026;-82
2023/07/30 10:21:33;;;;;;;0.40;0.40;;;;;;;19.62;62.44;100634.31;5164586;28;20037;-83
2023/07/30 10:24:25;;;;;;;0.60;0.60;;;;;;;19.76;62.16;100626.25;5166216;28;20039;-83
2023/07/30 10:27:24;;;;;;;1.00;0.68;;;;;;;19.76;60.77;100636.03;5152445;28;20112;-83
2023/07/30 10:30:17;;;;;;;0.75;0.75;;;;;;;19.82;60.57;100628.50;5153717;28;20503;-83
2023/07/30 10:33:09;;;;;;;0.50;0.50;;;;;;;19.90;60.57;100629.81;5166039;28;20034;-84
2023/07/30 10:36:00;;;;;;;7.88;1.27;;;;;;;19.97;60.28;100628.44;5171086;28;20076;-83
2023/07/30 10:38:51;;;;;;;0.75;0.47;;;;;;;20.02;59.33;100621.00;5162498;28;20044;-83
2023/07/30 10:42:00;;;;;;;0.80;0.80;;;;;;;20.05;58.99;100628.75;5165124;28;20446;-83
2023/07/30 10:44:51;;;;;;;0.77;0.77;;;;;;;20.12;58.97;100632.69;5173261;28;20164;-83
2023/07/30 10:47:42;;;;;;;0.40;0.40;;;;;;;20.08;57.50;100623.22;5157647;28;20038;-82
2023/07/30 10:50:37;;;;;;;0.85;0.82;;;;;;;20.27;59.34;100638.78;5160646;28;20129;-82
2023/07/30 10:53:28;;;;;;;0.30;0.30;;;;;;;20.12;56.25;100637.19;5167644;28;20041;-83
2023/07/30 10:56:23;;;;;;;0.77;0.77;;;;;;;20.10;57.70;100634.63;5166933;28;20553;-83
2023/07/30 10:59:15;;;;;;;0.20;0.20;;;;;;;20.28;57.15;100637.84;5153089;28;20089;-84
2023/07/30 11:02:08;;;;;;;0.60;0.52;;;;;;;20.23;57.05;100633.78;5190809;28;20033;-82
2023/07/30 11:05:11;;;;;;;0.95;0.90;;;;;;;20.20;57.44;100650.00;5190583;28;20068;-82
2023/07/30 11:08:01;;;;;;;0.40;0.40;;;;;;;20.25;57.32;100648.69;5186164;28;20160;-83
2023/07/30 11:10:52;;;;;;;0.20;0.20;;;;;;;20.37;57.49;100646.97;5182151;28;20413;-83
2023/07/30 11:13:48;;;;;;;0.20;0.20;;;;;;;20.43;58.03;100651.03;5190486;28;20038;-83
2023/07/30 11:16:48;;;;;;;1.15;0.45;;;;;;;20.44;57.85;100647.41;5163154;28;20105;-83
2023/07/30 11:19:43;;;;;;;0.73;0.73;;;;;;;20.42;58.47;100655.53;5158903;28;20030;-83
2023/07/30 11:22:35;;;;;;;0.73;0.73;;;;;;;20.37;58.98;100662.13;5172202;28;20046;-83
2023/07/30 11:25:26;;;;;;;1.00;0.90;;;;;;;20.34;57.78;100668.53;5174089;28;20518;-82
2023/07/30 11:28:33;;;;;;;0.30;0.30;;;;;;;20.33;57.67;100661.50;5172055;28;20035;-83
2023/07/30 11:31:27;;;;;;;0.40;0.40;;;;;;;20.53;57.82;100660.09;5171169;28;20038;-83
2023/07/30 11:34:18;;;;;;;0.70;0.70;;;;;;;20.55;56.72;100667.97;5176271;28;20046;-83
2023/07/30 11:37:09;;;;;;;0.20;0.20;;;;;;;20.50;56.49;100678.13;5172954;28;20037;-83
2023/07/30 11:40:00;;;;;;;0.40;0.40;;;;;;;20.59;57.49;100688.16;5185370;28;20317;-83
2023/07/30 11:42:51;;;;;;;0.40;0.40;;;;;;;20.57;57.55;100676.72;5182593;28;20033;-83
2023/07/30 11:45:42;;;;;;;0.40;0.40;;;;;;;20.63;56.66;100691.44;5169764;28;20084;-82
2023/07/30 11:48:33;;;;;;;1.17;1.17;;;;;;;20.69;56.91;100697.22;5174105;28;20042;-83
2023/07/30 11:51:26;;;;;;;1.25;0.85;;;;;;;20.63;57.48;100700.28;5159505;28;20030;-83
2023/07/30 11:54:22;;;;;;;0.63;0.63;;;;;;;20.43;56.86;100721.19;5170838;28;20135;-83
2023/07/30 11:57:13;;;;;;;0.30;0.30;;;;;;;20.41;56.69;100727.59;5159520;28;20030;-83
2023/07/30 12:00:08;;;;;;;1.40;0.88;;;;;;;20.33;57.72;100736.09;5170704;28;20025;-83
2023/07/30 12:03:03;;;;;;;1.10;1.05;;;;;;;20.33;60.22;100740.59;5170213;28;20100;-83
2023/07/30 12:05:54;;;;;;;0.20;0.20;;;;;;;20.35;61.84;100726.19;5163598;28;20088;-83
2023/07/30 12:08:48;;;;;;;0.30;0.30;;;;;;;20.55;62.16;100727.50;5173100;28;20036;-84
2023/07/30 12:11:50;;;;;;;0.20;0.20;;;;;;;20.65;61.73;100738.34;5170757;28;20022;-84
2023/07/30 12:14:43;;;;;;;0.20;0.20;;;;;;;20.72;61.75;100731.63;5171634;28;20034;-83
2023/07/30 12:17:34;;;;;;;0.30;0.30;;;;;;;20.99;61.00;100729.84;5172031;28;20038;-84
2023/07/30 12:20:28;;;;;;;0.22;0.22;;;;;;;20.96;58.39;100727.38;5170377;28;20053;-83
2023/07/30 12:23:20;;;;;;;1.02;0.93;;;;;;;20.83;57.98;100732.72;5171021;28;20310;-82
2023/07/30 12:26:10;;;;;;;0.20;0.20;;;;;;;20.95;57.51;100739.00;5159698;28;20053;-83
2023/07/30 12:29:01;;;;;;;0.20;0.20;;;;;;;21.06;57.91;100739.97;5181459;28;20021;-81
2023/07/30 12:31:55;;;;;;;0.20;0.20;;;;;;;21.11;58.04;100752.13;5200543;28;20036;-82
2023/07/30 12:34:46;;;;;;;0.28;0.28;;;;;;;21.10;58.09;100745.09;5177198;28;20042;-84
2023/07/30 12:37:37;;;;;;;0.25;0.25;;;;;;;20.81;56.73;100739.97;5171713;28;20038;-84
2023/07/30 12:40:33;;;;;;;0.20;0.20;;;;;;;21.10;56.59;100750.41;5163966;28;20030;-83
2023/07/30 12:43:24;;;;;;;0.30;0.30;;;;;;;21.21;57.34;100745.16;5166583;28;20273;-83
2023/07/30 12:46:15;;;;;;;0.20;0.20;;;;;;;21.15;57.72;100737.59;5169230;28;20141;-83
2023/07/30 12:49:06;;;;;;;0.45;0.45;;;;;;;21.22;57.67;100741.53;5170490;28;20055;-84
2023/07/30 12:51:57;;;;;;;0.30;0.30;;;;;;;21.25;57.91;100733.31;5163290;28;20029;-82
2023/07/30 12:54:49;;;;;;;0.30;0.30;;;;;;;21.26;58.25;100720.81;5158450;28;20399;-83
2023/07/30 12:57:40;;;;;;;0.88;0.88;;;;;;;21.33;58.37;100712.25;5166061;28;20072;-83
2023/07/30 13:00:32;;;;;;;0.35;0.35;;;;;;;21.42;58.06;100718.72;5172204;28;20044;-83
2023/07/30 13:03:23;;;;;;;0.53;0.53;;;;;;;21.37;58.08;100710.22;5169480;28;20089;-83
2023/07/30 13:06:14;;;;;;;0.45;0.45;;;;;;;21.60;56.72;100713.91;5186746;28;20060;-83
2023/07/30 13:09:05;;;;;;;0.30;0.30;;;;;;;21.77;56.61;100711.81;5193941;28;20022;-82
2023/07/30 13:11:55;;;;;;;0.20;0.20;;;;;;;21.81;54.80;100706.13;5195077;28;20165;-82
2023/07/30 13:14:46;;;;;;;0.30;0.30;;;;;;;21.73;53.80;100705.84;5192269;28;20026;-83
2023/07/30 13:17:38;;;;;;;0.30;0.30;;;;;;;21.90;54.13;100703.72;5191150;28;20029;-83